sensor_id;sensor_type;location;lat;lon;timestamp;pressure;altitude;pressure_sealevel;temperature;humidity
11440;BME280;5776;51.814;4.510;2023-12-07T00:02:18;102026.53;;;3.10;100.00
11440;BME280;5776;51.814;4.510;2023-12-07T00:04:44;102019.53;;;3.09;100.00
11440;BME280;5776;51.814;4.510;2023-12-07T00:07:11;102014.56;;;3.06;100.00
11440;BME280;5776;51.814;4.510;2023-12-07T00:09:37;102018.50;;;3.03;100.00
11440;BME280;5776;51.814;4.510;2023-12-07T00:12:03;102015.19;;;3.01;100.00
11440;BME280;5776;51.814;4.510;2023-12-07T00:14:29;102011.69;;;3.01;100.00
11440;BME280;5776;51.814;4.510;2023-12-07T00:16:56;102009.84;;;3.01;100.00
11440;BME280;5776;51.814;4.510;2023-12-07T00:19:22;102006.34;;;3.01;100.00
11440;BME280;5776;51.814;4.510;2023-12-07T00:21:48;102008.38;;;2.99;100.00
11440;BME280;5776;51.814;4.510;2023-12-07T00:24:14;102006.94;;;2.96;100.00
11440;BME280;5776;51.814;4.510;2023-12-07T00:26:40;102014.38;;;2.94;100.00
11440;BME280;5776;51.814;4.510;2023-12-07T00:29:06;102006.53;;;2.93;100.00
11440;BME280;5776;51.814;4.510;2023-12-07T00:31:32;102017.47;;;2.91;100.00
11440;BME280;5776;51.814;4.510;2023-12-07T00:33:57;102010.69;;;2.89;100.00
11440;BME280;5776;51.814;4.510;2023-12-07T00:36:23;102005.69;;;2.86;100.00
11440;BME280;5776;51.814;4.510;2023-12-07T00:38:49;101996.00;;;2.85;100.00
11440;BME280;5776;51.814;4.510;2023-12-07T00:41:15;101993.31;;;2.85;100.00
11440;BME280;5776;51.814;4.510;2023-12-07T00:43:43;101990.03;;;2.83;100.00
11440;BME280;5776;51.814;4.510;2023-12-07T00:46:09;101996.44;;;2.81;100.00
11440;BME280;5776;51.814;4.510;2023-12-07T00:48:36;101997.44;;;2.80;100.00
11440;BME280;5776;51.814;4.510;2023-12-07T00:51:02;101991.50;;;2.78;100.00
11440;BME280;5776;51.814;4.510;2023-12-07T00:53:28;101987.75;;;2.79;100.00
11440;BME280;5776;51.814;4.510;2023-12-07T00:55:54;101991.50;;;2.78;100.00
11440;BME280;5776;51.814;4.510;2023-12-07T00:58:20;101995.19;;;2.77;100.00
11440;BME280;5776;51.814;4.510;2023-12-07T01:00:47;101990.88;;;2.76;100.00
11440;BME280;5776;51.814;4.510;2023-12-07T01:03:14;101994.56;;;2.75;100.00
11440;BME280;5776;51.814;4.510;2023-12-07T01:05:39;102002.63;;;2.75;100.00
11440;BME280;5776;51.814;4.510;2023-12-07T01:08:05;102002.00;;;2.73;100.00
11440;BME280;5776;51.814;4.510;2023-12-07T01:10:32;102000.34;;;2.72;100.00
11440;BME280;5776;51.814;4.510;2023-12-07T01:12:58;102001.41;;;2.71;100.00
11440;BME280;5776;51.814;4.510;2023-12-07T01:15:24;102010.69;;;2.69;100.00
11440;BME280;5776;51.814;4.510;2023-12-07T01:17:50;102011.50;;;2.69;100.00
11440;BME280;5776;51.814;4.510;2023-12-07T01:20:17;102011.94;;;2.66;100.00
11440;BME280;5776;51.814;4.510;2023-12-07T01:22:43;102010.06;;;2.67;100.00
11440;BME280;5776;51.814;4.510;2023-12-07T01:25:10;102014.59;;;2.66;100.00
11440;BME280;5776;51.814;4.510;2023-12-07T01:27:36;102011.31;;;2.64;100.00
11440;BME280;5776;51.814;4.510;2023-12-07T01:30:03;102016.66;;;2.64;100.00
11440;BME280;5776;51.814;4.510;2023-12-07T01:32:30;102003.25;;;2.64;100.00
11440;BME280;5776;51.814;4.510;2023-12-07T01:34:56;102008.63;;;2.64;100.00
11440;BME280;5776;51.814;4.510;2023-12-07T01:37:21;102004.25;;;2.63;100.00
11440;BME280;5776;51.814;4.510;2023-12-07T01:39:47;102001.38;;;2.65;100.00
11440;BME280;5776;51.814;4.510;2023-12-07T01:42:15;102001.59;;;2.63;100.00
11440;BME280;5776;51.814;4.510;2023-12-07T01:44:41;102005.31;;;2.62;100.00
11440;BME280;5776;51.814;4.510;2023-12-07T01:47:08;102006.13;;;2.63;100.00
11440;BME280;5776;51.814;4.510;2023-12-07T01:49:35;102003.66;;;2.61;100.00
11440;BME280;5776;51.814;4.510;2023-12-07T01:52:02;102004.25;;;2.63;100.00
11440;BME280;5776;51.814;4.510;2023-12-07T01:54:29;101997.06;;;2.64;100.00
11440;BME280;5776;51.814;4.510;2023-12-07T01:56:55;102013.97;;;2.64;100.00
11440;BME280;5776;51.814;4.510;2023-12-07T01:59:23;102005.31;;;2.62;100.00
11440;BME280;5776;51.814;4.510;2023-12-07T02:01:50;101998.91;;;2.63;100.00
11440;BME280;5776;51.814;4.510;2023-12-07T02:04:16;102008.81;;;2.63;100.00
11440;BME280;5776;51.814;4.510;2023-12-07T02:06:42;101998.91;;;2.63;100.00
11440;BME280;5776;51.814;4.510;2023-12-07T02:09:08;101998.31;;;2.61;100.00
11440;BME280;5776;51.814;4.510;2023-12-07T02:11:35;101998.91;;;2.63;100.00
11440;BME280;5776;51.814;4.510;2023-12-07T02:14:01;102012.31;;;2.63;100.00
11440;BME280;5776;51.814;4.510;2023-12-07T02:16:34;101999.13;;;2.62;100.00
11440;BME280;5776;51.814;4.510;2023-12-07T02:22:07;102004.69;;;2.60;100.00
11440;BME280;5776;51.814;4.510;2023-12-07T02:24:36;102010.06;;;2.60;100.00
11440;BME280;5776;51.814;4.510;2023-12-07T02:27:03;102007.59;;;2.58;100.00
11440;BME280;5776;51.814;4.510;2023-12-07T02:29:29;102011.91;;;2.59;100.00
11440;BME280;5776;51.814;4.510;2023-12-07T02:31:55;102008.59;;;2.57;100.00
11440;BME280;5776;51.814;4.510;2023-12-07T02:34:21;102008.84;;;2.56;100.00
11440;BME280;5776;51.814;4.510;2023-12-07T02:36:48;102016.03;;;2.55;100.00
11440;BME280;5776;51.814;4.510;2023-12-07T02:39:15;102021.38;;;2.55;100.00
11440;BME280;5776;51.814;4.510;2023-12-07T02:41:41;102010.88;;;2.54;100.00
11440;BME280;5776;51.814;4.510;2023-12-07T02:44:09;102002.84;;;2.54;100.00
11440;BME280;5776;51.814;4.510;2023-12-07T02:46:35;102004.91;;;2.52;100.00
11440;BME280;5776;51.814;4.510;2023-12-07T02:49:02;102010.25;;;2.52;100.00
11440;BME280;5776;51.814;4.510;2023-12-07T02:51:28;102004.91;;;2.52;100.00
11440;BME280;5776;51.814;4.510;2023-12-07T02:53:55;102009.00;;;2.48;100.00
11440;BME280;5776;51.814;4.510;2023-12-07T02:56:20;102014.59;;;2.46;100.00
11440;BME280;5776;51.814;4.510;2023-12-07T02:58:46;102015.63;;;2.38;100.00
11440;BME280;5776;51.814;4.510;2023-12-07T03:01:12;102018.91;;;2.41;100.00
11440;BME280;5776;51.814;4.510;2023-12-07T03:03:38;102024.06;;;2.42;100.00
11440;BME280;5776;51.814;4.510;2023-12-07T03:06:06;102017.88;;;2.42;100.00
11440;BME280;5776;51.814;4.510;2023-12-07T03:08:33;102023.44;;;2.40;100.00
11440;BME280;5776;51.814;4.510;2023-12-07T03:11:00;102023.44;;;2.40;100.00
11440;BME280;5776;51.814;4.510;2023-12-07T03:13:26;102033.97;;;2.42;100.00
11440;BME280;5776;51.814;4.510;2023-12-07T03:15:53;102033.16;;;2.41;100.00
11440;BME280;5776;51.814;4.510;2023-12-07T03:18:18;102019.94;;;2.40;100.00
11440;BME280;5776;51.814;4.510;2023-12-07T03:20:44;102030.47;;;2.41;100.00
11440;BME280;5776;51.814;4.510;2023-12-07T03:23:10;102028.81;;;2.40;100.00
11440;BME280;5776;51.814;4.510;2023-12-07T03:25:36;102029.63;;;2.41;100.00
11440;BME280;5776;51.814;4.510;2023-12-07T03:28:02;102031.28;;;2.42;100.00
11440;BME280;5776;51.814;4.510;2023-12-07T03:30:28;102038.31;;;2.43;100.00
11440;BME280;5776;51.814;4.510;2023-12-07T03:32:54;102039.13;;;2.43;100.00
11440;BME280;5776;51.814;4.510;2023-12-07T03:35:20;102039.34;;;2.42;100.00
11440;BME280;5776;51.814;4.510;2023-12-07T03:37:47;102041.59;;;2.45;100.00
11440;BME280;5776;51.814;4.510;2023-12-07T03:40:12;102036.25;;;2.45;100.00
11440;BME280;5776;51.814;4.510;2023-12-07T03:42:38;102031.94;;;2.44;100.00
11440;BME280;5776;51.814;4.510;2023-12-07T03:45:05;102032.94;;;2.43;100.00
11440;BME280;5776;51.814;4.510;2023-12-07T03:47:32;102036.25;;;2.45;100.00
11440;BME280;5776;51.814;4.510;2023-12-07T03:49:58;102038.09;;;2.44;100.00
11440;BME280;5776;51.814;4.510;2023-12-07T03:52:24;102043.25;;;2.46;100.00
11440;BME280;5776;51.814;4.510;2023-12-07T03:54:50;102034.59;;;2.44;100.00
11440;BME280;5776;51.814;4.510;2023-12-07T03:57:16;102023.25;;;2.42;100.00
11440;BME280;5776;51.814;4.510;2023-12-07T03:59:43;102031.09;;;2.36;100.00
11440;BME280;5776;51.814;4.510;2023-12-07T04:02:09;102035.00;;;2.41;100.00
11440;BME280;5776;51.814;4.510;2023-12-07T04:04:36;102041.41;;;2.40;100.00
11440;BME280;5776;51.814;4.510;2023-12-07T04:07:02;102035.44;;;2.44;100.00
11440;BME280;5776;51.814;4.510;2023-12-07T04:09:28;102027.56;;;2.43;100.00
11440;BME280;5776;51.814;4.510;2023-12-07T04:11:54;102035.84;;;2.41;100.00
11440;BME280;5776;51.814;4.510;2023-12-07T04:14:20;102032.94;;;2.36;100.00
11440;BME280;5776;51.814;4.510;2023-12-07T04:16:46;102026.34;;;2.38;100.00
11440;BME280;5776;51.814;4.510;2023-12-07T04:19:11;102030.66;;;2.40;100.00
11440;BME280;5776;51.814;4.510;2023-12-07T04:21:38;102023.47;;;2.33;100.00
11440;BME280;5776;51.814;4.510;2023-12-07T04:24:06;102014.56;;;2.33;100.00
11440;BME280;5776;51.814;4.510;2023-12-07T04:26:31;102026.53;;;2.37;100.00
11440;BME280;5776;51.814;4.510;2023-12-07T04:28:58;102020.34;;;2.36;100.00
11440;BME280;5776;51.814;4.510;2023-12-07T04:31:23;102023.03;;;2.36;100.00
11440;BME280;5776;51.814;4.510;2023-12-07T04:33:50;102018.09;;;2.33;100.00
11440;BME280;5776;51.814;4.510;2023-12-07T04:36:16;102013.97;;;2.31;100.00
11440;BME280;5776;51.814;4.510;2023-12-07T04:38:43;102028.81;;;2.33;100.00
11440;BME280;5776;51.814;4.510;2023-12-07T04:41:09;102021.78;;;2.32;100.00
11440;BME280;5776;51.814;4.510;2023-12-07T04:43:36;102017.69;;;2.36;100.00
11440;BME280;5776;51.814;4.510;2023-12-07T04:46:03;102018.50;;;2.37;100.00
11440;BME280;5776;51.814;4.510;2023-12-07T04:48:29;102022.41;;;2.34;100.00
11440;BME280;5776;51.814;4.510;2023-12-07T04:50:56;102024.06;;;2.35;100.00
11440;BME280;5776;51.814;4.510;2023-12-07T04:53:22;102024.06;;;2.35;100.00
11440;BME280;5776;51.814;4.510;2023-12-07T04:55:49;102029.22;;;2.37;100.00
11440;BME280;5776;51.814;4.510;2023-12-07T04:58:15;102025.91;;;2.35;100.00
11440;BME280;5776;51.814;4.510;2023-12-07T05:00:41;102027.16;;;2.32;100.00
11440;BME280;5776;51.814;4.510;2023-12-07T05:03:07;102020.97;;;2.32;100.00
11440;BME280;5776;51.814;4.510;2023-12-07T05:05:32;102021.78;;;2.32;100.00
11440;BME280;5776;51.814;4.510;2023-12-07T05:07:58;102020.16;;;2.31;100.00
11440;BME280;5776;51.814;4.510;2023-12-07T05:10:24;102029.00;;;2.32;100.00
11440;BME280;5776;51.814;4.510;2023-12-07T05:12:50;102024.25;;;2.27;100.00
11440;BME280;5776;51.814;4.510;2023-12-07T05:15:16;102018.88;;;2.27;100.00
11440;BME280;5776;51.814;4.510;2023-12-07T05:17:42;102021.38;;;2.29;100.00
11440;BME280;5776;51.814;4.510;2023-12-07T05:20:09;102020.16;;;2.31;100.00
11440;BME280;5776;51.814;4.510;2023-12-07T05:22:35;102025.50;;;2.25;100.00
11440;BME280;5776;51.814;4.510;2023-12-07T05:25:03;102010.22;;;2.25;100.00
11440;BME280;5776;51.814;4.510;2023-12-07T05:27:30;102012.09;;;2.25;100.00
11440;BME280;5776;51.814;4.510;2023-12-07T05:29:56;102001.16;;;2.26;100.00
11440;BME280;5776;51.814;4.510;2023-12-07T05:32:23;101997.44;;;2.27;100.00
11440;BME280;5776;51.814;4.510;2023-12-07T05:34:49;101991.28;;;2.33;100.00
11440;BME280;5776;51.814;4.510;2023-12-07T05:37:16;101995.41;;;2.36;100.00
11440;BME280;5776;51.814;4.510;2023-12-07T05:39:42;101993.75;;;2.35;100.00
11440;BME280;5776;51.814;4.510;2023-12-07T05:42:07;101984.88;;;2.34;100.00
11440;BME280;5776;51.814;4.510;2023-12-07T05:44:33;101988.38;;;2.35;100.00
11440;BME280;5776;51.814;4.510;2023-12-07T05:46:59;101989.41;;;2.34;100.00
11440;BME280;5776;51.814;4.510;2023-12-07T05:49:25;101981.56;;;2.32;100.00
11440;BME280;5776;51.814;4.510;2023-12-07T05:51:52;101987.13;;;2.37;100.00
11440;BME280;5776;51.814;4.510;2023-12-07T05:54:18;101976.22;;;2.39;100.00
11440;BME280;5776;51.814;4.510;2023-12-07T05:56:46;101977.66;;;2.42;100.00
11440;BME280;5776;51.814;4.510;2023-12-07T05:59:12;101980.13;;;2.43;100.00
11440;BME280;5776;51.814;4.510;2023-12-07T06:01:38;101987.34;;;2.43;100.00
11440;BME280;5776;51.814;4.510;2023-12-07T06:04:03;101984.25;;;2.46;100.00
11440;BME280;5776;51.814;4.510;2023-12-07T06:06:31;101985.28;;;2.45;100.00
11440;BME280;5776;51.814;4.510;2023-12-07T06:08:57;101973.13;;;2.42;100.00
11440;BME280;5776;51.814;4.510;2023-12-07T06:11:23;101978.88;;;2.46;100.00
11440;BME280;5776;51.814;4.510;2023-12-07T06:13:49;101973.53;;;2.46;100.00
11440;BME280;5776;51.814;4.510;2023-12-07T06:16:16;101978.06;;;2.45;100.00
11440;BME280;5776;51.814;4.510;2023-12-07T06:18:43;101976.81;;;2.48;100.00
11440;BME280;5776;51.814;4.510;2023-12-07T06:21:08;101972.28;;;2.48;100.00
11440;BME280;5776;51.814;4.510;2023-12-07T06:23:34;101980.13;;;2.50;100.00
11440;BME280;5776;51.814;4.510;2023-12-07T06:26:01;101977.25;;;2.45;100.00
11440;BME280;5776;51.814;4.510;2023-12-07T06:28:28;101971.88;;;2.38;100.00
11440;BME280;5776;51.814;4.510;2023-12-07T06:30:53;101969.41;;;2.63;100.00
11440;BME280;5776;51.814;4.510;2023-12-07T06:33:19;101975.97;;;2.80;100.00
11440;BME280;5776;51.814;4.510;2023-12-07T06:35:45;101971.25;;;2.83;100.00
11440;BME280;5776;51.814;4.510;2023-12-07T06:38:12;101967.75;;;2.82;100.00
11440;BME280;5776;51.814;4.510;2023-12-07T06:40:39;101983.63;;;2.84;100.00
11440;BME280;5776;51.814;4.510;2023-12-07T06:43:05;101975.59;;;2.84;100.00
11440;BME280;5776;51.814;4.510;2023-12-07T06:45:31;101979.91;;;2.85;100.00
11440;BME280;5776;51.814;4.510;2023-12-07T06:47:56;101977.22;;;2.85;100.00
11440;BME280;5776;51.814;4.510;2023-12-07T06:50:22;101974.53;;;2.85;100.00
11440;BME280;5776;51.814;4.510;2023-12-07T06:52:49;101973.72;;;2.84;100.00
11440;BME280;5776;51.814;4.510;2023-12-07T06:55:17;101968.97;;;2.86;100.00
11440;BME280;5776;51.814;4.510;2023-12-07T06:57:43;101974.13;;;2.88;100.00
11440;BME280;5776;51.814;4.510;2023-12-07T07:00:09;101967.75;;;2.89;100.00
11440;BME280;5776;51.814;4.510;2023-12-07T07:02:38;101962.38;;;2.89;100.00
11440;BME280;5776;51.814;4.510;2023-12-07T07:05:04;101966.50;;;2.91;100.00
11440;BME280;5776;51.814;4.510;2023-12-07T07:07:31;101966.28;;;2.93;100.00
11440;BME280;5776;51.814;4.510;2023-12-07T07:09:57;101967.50;;;2.90;100.00
11440;BME280;5776;51.814;4.510;2023-12-07T07:12:24;101965.25;;;2.94;100.00
11440;BME280;5776;51.814;4.510;2023-12-07T07:14:50;101972.25;;;2.95;100.00
11440;BME280;5776;51.814;4.510;2023-12-07T07:17:16;101960.47;;;2.96;100.00
11440;BME280;5776;51.814;4.510;2023-12-07T07:19:43;101959.47;;;2.97;100.00
11440;BME280;5776;51.814;4.510;2023-12-07T07:22:08;101964.22;;;2.95;100.00
11440;BME280;5776;51.814;4.510;2023-12-07T07:24:34;101963.78;;;2.98;100.00
11440;BME280;5776;51.814;4.510;2023-12-07T07:27:00;101968.94;;;2.99;100.00
11440;BME280;5776;51.814;4.510;2023-12-07T07:29:26;101971.44;;;3.01;100.00
11440;BME280;5776;51.814;4.510;2023-12-07T07:31:53;101973.91;;;3.02;100.00
11440;BME280;5776;51.814;4.510;2023-12-07T07:34:20;101967.69;;;3.02;100.00
11440;BME280;5776;51.814;4.510;2023-12-07T07:36:47;101970.59;;;3.00;100.00
11440;BME280;5776;51.814;4.510;2023-12-07T07:39:13;101971.00;;;3.04;100.00
11440;BME280;5776;51.814;4.510;2023-12-07T07:41:40;101966.88;;;3.01;100.00
11440;BME280;5776;51.814;4.510;2023-12-07T07:44:08;101980.69;;;3.05;100.00
11440;BME280;5776;51.814;4.510;2023-12-07T07:46:34;101983.38;;;3.05;100.00
11440;BME280;5776;51.814;4.510;2023-12-07T07:49:02;101989.19;;;3.09;100.00
11440;BME280;5776;51.814;4.510;2023-12-07T07:51:30;101986.25;;;3.10;100.00
11440;BME280;5776;51.814;4.510;2023-12-07T07:53:56;101980.88;;;3.10;100.00
11440;BME280;5776;51.814;4.510;2023-12-07T07:56:22;101977.19;;;3.11;100.00
11440;BME280;5776;51.814;4.510;2023-12-07T07:58:49;101973.88;;;3.09;100.00
11440;BME280;5776;51.814;4.510;2023-12-07T08:01:16;101970.16;;;3.10;100.00
11440;BME280;5776;51.814;4.510;2023-12-07T08:03:42;101957.56;;;3.11;100.00
11440;BME280;5776;51.814;4.510;2023-12-07T08:06:07;101969.72;;;3.13;100.00
11440;BME280;5776;51.814;4.510;2023-12-07T08:08:34;101972.41;;;3.13;100.00
11440;BME280;5776;51.814;4.510;2023-12-07T08:11:00;101975.94;;;3.14;100.00
11440;BME280;5776;51.814;4.510;2023-12-07T08:13:26;101980.25;;;3.15;100.00
11440;BME280;5776;51.814;4.510;2023-12-07T08:15:53;101981.91;;;3.16;100.00
11440;BME280;5776;51.814;4.510;2023-12-07T08:18:18;101973.25;;;3.14;100.00
11440;BME280;5776;51.814;4.510;2023-12-07T08:20:45;101972.22;;;3.15;100.00
11440;BME280;5776;51.814;4.510;2023-12-07T08:23:12;101972.00;;;3.16;100.00
11440;BME280;5776;51.814;4.510;2023-12-07T08:25:38;101974.69;;;3.16;100.00
11440;BME280;5776;51.814;4.510;2023-12-07T08:28:05;101970.97;;;3.17;100.00
11440;BME280;5776;51.814;4.510;2023-12-07T08:30:31;101977.97;;;3.18;100.00
11440;BME280;5776;51.814;4.510;2023-12-07T08:32:57;101975.28;;;3.18;100.00
11440;BME280;5776;51.814;4.510;2023-12-07T08:35:23;101978.59;;;3.20;100.00
11440;BME280;5776;51.814;4.510;2023-12-07T08:37:49;101965.78;;;3.22;100.00
11440;BME280;5776;51.814;4.510;2023-12-07T08:40:15;101966.00;;;3.21;100.00
11440;BME280;5776;51.814;4.510;2023-12-07T08:42:45;101968.03;;;3.25;100.00
11440;BME280;5776;51.814;4.510;2023-12-07T08:45:11;101959.38;;;3.23;100.00
11440;BME280;5776;51.814;4.510;2023-12-07T08:47:41;101951.53;;;3.22;100.00
11440;BME280;5776;51.814;4.510;2023-12-07T08:50:07;101949.25;;;3.25;100.00
11440;BME280;5776;51.814;4.510;2023-12-07T08:52:33;101948.00;;;3.28;100.00
11440;BME280;5776;51.814;4.510;2023-12-07T08:54:59;101957.88;;;3.41;100.00
11440;BME280;5776;51.814;4.510;2023-12-07T08:57:26;101964.72;;;3.37;100.00
11440;BME280;5776;51.814;4.510;2023-12-07T08:59:52;101968.03;;;3.32;100.00
11440;BME280;5776;51.814;4.510;2023-12-07T09:02:19;101963.47;;;3.33;100.00
11440;BME280;5776;51.814;4.510;2023-12-07T09:04:45;101963.91;;;3.30;100.00
11440;BME280;5776;51.814;4.510;2023-12-07T09:07:11;101964.28;;;3.33;100.00
11440;BME280;5776;51.814;4.510;2023-12-07T09:09:41;101970.09;;;3.37;100.00
11440;BME280;5776;51.814;4.510;2023-12-07T09:12:13;101958.28;;;3.38;100.00
11440;BME280;5776;51.814;4.510;2023-12-07T09:14:40;101959.13;;;3.38;100.00
11440;BME280;5776;51.814;4.510;2023-12-07T09:17:06;101946.72;;;3.37;100.00
11440;BME280;5776;51.814;4.510;2023-12-07T09:19:31;101949.22;;;3.39;100.00
11440;BME280;5776;51.814;4.510;2023-12-07T09:21:57;101952.09;;;3.37;100.00
11440;BME280;5776;51.814;4.510;2023-12-07T09:24:26;101939.50;;;3.38;100.00
11440;BME280;5776;51.814;4.510;2023-12-07T09:26:51;101941.75;;;3.41;100.00
11440;BME280;5776;51.814;4.510;2023-12-07T09:29:17;101932.84;;;3.54;100.00
11440;BME280;5776;51.814;4.510;2023-12-07T09:31:44;101936.16;;;3.49;100.00
11440;BME280;5776;51.814;4.510;2023-12-07T09:34:10;101926.38;;;3.16;100.00
11440;BME280;5776;51.814;4.510;2023-12-07T09:36:37;101915.06;;;3.01;100.00
11440;BME280;5776;51.814;4.510;2023-12-07T09:39:03;101924.47;;;3.23;100.00
11440;BME280;5776;51.814;4.510;2023-12-07T09:41:29;101914.13;;;3.34;100.00
11440;BME280;5776;51.814;4.510;2023-12-07T09:43:55;101906.84;;;3.41;100.00
11440;BME280;5776;51.814;4.510;2023-12-07T09:46:20;101906.84;;;3.41;100.00
11440;BME280;5776;51.814;4.510;2023-12-07T09:48:48;101897.75;;;3.42;100.00
11440;BME280;5776;51.814;4.510;2023-12-07T09:51:15;101905.09;;;3.60;100.00
11440;BME280;5776;51.814;4.510;2023-12-07T09:53:42;101902.44;;;3.53;100.00
11440;BME280;5776;51.814;4.510;2023-12-07T09:56:09;101896.47;;;3.51;100.00
11440;BME280;5776;51.814;4.510;2023-12-07T09:58:35;101900.19;;;3.50;100.00
11440;BME280;5776;51.814;4.510;2023-12-07T10:01:02;101892.13;;;3.50;100.00
11440;BME280;5776;51.814;4.510;2023-12-07T10:03:28;101890.91;;;3.46;100.00
11440;BME280;5776;51.814;4.510;2023-12-07T10:05:58;101891.31;;;3.50;100.00
11440;BME280;5776;51.814;4.510;2023-12-07T10:08:29;101886.56;;;3.52;100.00
11440;BME280;5776;51.814;4.510;2023-12-07T10:11:07;101892.53;;;3.54;100.00
11440;BME280;5776;51.814;4.510;2023-12-07T10:13:34;101887.38;;;3.52;100.00
11440;BME280;5776;51.814;4.510;2023-12-07T10:16:26;101889.84;;;3.54;100.00
11440;BME280;5776;51.814;4.510;2023-12-07T10:18:52;101883.41;;;3.61;100.00
11440;BME280;5776;51.814;4.510;2023-12-07T10:21:32;101879.22;;;3.34;100.00
11440;BME280;5776;51.814;4.510;2023-12-07T10:23:59;101877.81;;;3.18;100.00
11440;BME280;5776;51.814;4.510;2023-12-07T10:26:26;101867.78;;;3.45;100.00
11440;BME280;5776;51.814;4.510;2023-12-07T10:28:52;101859.03;;;3.56;100.00
11440;BME280;5776;51.814;4.510;2023-12-07T10:31:19;101859.72;;;3.77;100.00
11440;BME280;5776;51.814;4.510;2023-12-07T10:33:48;101848.59;;;3.98;100.00
11440;BME280;5776;51.814;4.510;2023-12-07T10:36:15;101850.47;;;3.98;100.00
11440;BME280;5776;51.814;4.510;2023-12-07T10:38:40;101849.38;;;4.05;100.00
11440;BME280;5776;51.814;4.510;2023-12-07T10:41:09;101844.59;;;4.07;100.00
11440;BME280;5776;51.814;4.510;2023-12-07T10:43:42;101831.84;;;4.21;100.00
11440;BME280;5776;51.814;4.510;2023-12-07T10:46:13;101829.88;;;4.35;100.00
11440;BME280;5776;51.814;4.510;2023-12-07T10:48:44;101823.88;;;4.33;100.00
11440;BME280;5776;51.814;4.510;2023-12-07T10:51:16;101821.03;;;4.28;100.00
11440;BME280;5776;51.814;4.510;2023-12-07T10:53:45;101819.00;;;4.23;100.00
11440;BME280;5776;51.814;4.510;2023-12-07T10:56:15;101810.72;;;4.25;100.00
11440;BME280;5776;51.814;4.510;2023-12-07T10:58:42;101814.25;;;4.25;100.00
11440;BME280;5776;51.814;4.510;2023-12-07T11:01:09;101809.75;;;4.19;100.00
11440;BME280;5776;51.814;4.510;2023-12-07T11:03:37;101795.91;;;4.16;100.00
11440;BME280;5776;51.814;4.510;2023-12-07T11:06:06;101802.34;;;4.15;100.00
11440;BME280;5776;51.814;4.510;2023-12-07T11:08:39;101794.66;;;4.18;100.00
11440;BME280;5776;51.814;4.510;2023-12-07T11:11:17;101800.84;;;4.19;100.00
11440;BME280;5776;51.814;4.510;2023-12-07T11:14:02;101799.81;;;4.20;100.00
11440;BME280;5776;51.814;4.510;2023-12-07T11:16:30;101797.75;;;4.22;100.00
11440;BME280;5776;51.814;4.510;2023-12-07T11:18:58;101792.94;;;4.24;100.00
11440;BME280;5776;51.814;4.510;2023-12-07T11:21:25;101789.88;;;4.20;100.00
11440;BME280;5776;51.814;4.510;2023-12-07T11:23:52;101788.47;;;4.18;100.00
11440;BME280;5776;51.814;4.510;2023-12-07T11:26:20;101788.47;;;4.18;100.00
11440;BME280;5776;51.814;4.510;2023-12-07T11:28:47;101790.09;;;4.19;100.00
11440;BME280;5776;51.814;4.510;2023-12-07T11:31:14;101783.06;;;4.18;100.00
11440;BME280;5776;51.814;4.510;2023-12-07T11:33:41;101774.41;;;4.16;100.00
11440;BME280;5776;51.814;4.510;2023-12-07T11:36:09;101768.56;;;4.19;100.00
11440;BME280;5776;51.814;4.510;2023-12-07T11:38:37;101771.06;;;4.20;100.00
11440;BME280;5776;51.814;4.510;2023-12-07T11:41:03;101759.13;;;4.35;100.00
11440;BME280;5776;51.814;4.510;2023-12-07T11:45:58;101754.94;;;3.77;100.00
11440;BME280;5776;51.814;4.510;2023-12-07T11:48:24;101752.34;;;3.63;100.00
11440;BME280;5776;51.814;4.510;2023-12-07T11:51:06;101746.59;;;3.60;100.00
11440;BME280;5776;51.814;4.510;2023-12-07T11:53:37;101733.44;;;3.77;100.00
11440;BME280;5776;51.814;4.510;2023-12-07T11:56:05;101722.91;;;3.94;100.00
11440;BME280;5776;51.814;4.510;2023-12-07T11:58:33;101721.00;;;4.01;100.00
11440;BME280;5776;51.814;4.510;2023-12-07T12:01:00;101718.25;;;4.07;100.00
11440;BME280;5776;51.814;4.510;2023-12-07T12:03:28;101713.16;;;4.18;100.00
11440;BME280;5776;51.814;4.510;2023-12-07T12:05:54;101702.25;;;4.13;100.00
11440;BME280;5776;51.814;4.510;2023-12-07T12:08:24;101691.97;;;4.09;100.00
11440;BME280;5776;51.814;4.510;2023-12-07T12:10:51;101684.72;;;4.10;100.00
11440;BME280;5776;51.814;4.510;2023-12-07T12:13:19;101675.59;;;4.11;100.00
11440;BME280;5776;51.814;4.510;2023-12-07T12:15:45;101666.09;;;4.08;100.00
11440;BME280;5776;51.814;4.510;2023-12-07T12:18:14;101652.66;;;4.08;100.00
11440;BME280;5776;51.814;4.510;2023-12-07T12:20:44;101641.69;;;4.10;100.00
11440;BME280;5776;51.814;4.510;2023-12-07T12:23:12;101639.38;;;4.14;100.00
11440;BME280;5776;51.814;4.510;2023-12-07T12:25:37;101630.94;;;4.10;100.00
11440;BME280;5776;51.814;4.510;2023-12-07T12:28:04;101631.44;;;4.37;100.00
11440;BME280;5776;51.814;4.510;2023-12-07T12:30:31;101628.97;;;4.36;100.00
11440;BME280;5776;51.814;4.510;2023-12-07T12:32:58;101636.44;;;4.33;100.00
11440;BME280;5776;51.814;4.510;2023-12-07T12:35:26;101634.00;;;4.32;100.00
11440;BME280;5776;51.814;4.510;2023-12-07T12:37:52;101622.78;;;4.35;100.00
11440;BME280;5776;51.814;4.510;2023-12-07T12:40:19;101614.09;;;4.33;100.00
11440;BME280;5776;51.814;4.510;2023-12-07T12:42:47;101600.06;;;4.31;100.00
11440;BME280;5776;51.814;4.510;2023-12-07T12:45:14;101600.97;;;4.25;100.00
11440;BME280;5776;51.814;4.510;2023-12-07T12:47:41;101596.19;;;4.27;100.00
11440;BME280;5776;51.814;4.510;2023-12-07T12:50:09;101597.50;;;4.36;100.00
11440;BME280;5776;51.814;4.510;2023-12-07T12:52:37;101598.09;;;4.38;100.00
11440;BME280;5776;51.814;4.510;2023-12-07T12:55:09;101592.13;;;4.36;100.00
11440;BME280;5776;51.814;4.510;2023-12-07T12:57:37;101593.19;;;4.35;100.00
11440;BME280;5776;51.814;4.510;2023-12-07T13:00:05;101587.59;;;4.37;100.00
11440;BME280;5776;51.814;4.510;2023-12-07T13:02:33;101592.84;;;4.43;100.00
11440;BME280;5776;51.814;4.510;2023-12-07T13:04:59;101580.69;;;4.41;100.00